Time;durP1;ratioP1;P1;durP2;ratioP2;P2;SDS_P1;SDS_P2;PMS_P1;PMS_P2;Temp;Humidity;BMP_temperature;BMP_pressure;BME280_temperature;BME280_humidity;BME280_pressure;Samples;Min_cycle;Max_cycle;Signal;HPM_P1;HPM_P2
2023/05/20 00:00:11;;;;;;;14.02;6.95;;;;;;;;;;5035095;28;20126;-78
2023/05/20 00:02:37;;;;;;;16.20;7.38;;;;;;;;;;5074376;28;20067;-78
2023/05/20 00:05:04;;;;;;;16.10;7.50;;;;;;;;;;5073517;28;20055;-78
2023/05/20 00:07:31;;;;;;;16.20;7.28;;;;;;;;;;5058643;28;20039;-79
2023/05/20 00:09:57;;;;;;;16.80;7.68;;;;;;;;;;5057661;28;20052;-78
2023/05/20 00:12:23;;;;;;;14.00;6.78;;;;;;;;;;5070222;28;20422;-77
2023/05/20 00:14:49;;;;;;;16.00;7.65;;;;;;;;;;5073421;28;20043;-78
2023/05/20 00:17:18;;;;;;;16.75;7.38;;;;;;;;;;5071463;28;20476;-78
2023/05/20 00:19:45;;;;;;;15.65;7.32;;;;;;;;;;5075258;28;20051;-78
2023/05/20 00:22:11;;;;;;;15.07;7.20;;;;;;;;;;5054238;28;20051;-78
2023/05/20 00:24:37;;;;;;;16.45;7.60;;;;;;;;;;5055378;28;20079;-78
2023/05/20 00:27:03;;;;;;;15.98;7.50;;;;;;;;;;5054817;28;20044;-79
2023/05/20 00:29:29;;;;;;;19.08;8.00;;;;;;;;;;5069427;28;20048;-79
2023/05/20 00:31:55;;;;;;;15.45;7.75;;;;;;;;;;5073512;28;20074;-80
2023/05/20 00:34:21;;;;;;;16.25;7.18;;;;;;;;;;5073438;28;20075;-78
2023/05/20 00:36:47;;;;;;;13.60;7.40;;;;;;;;;;5058268;28;20085;-79
2023/05/20 00:39:13;;;;;;;13.90;7.57;;;;;;;;;;5052913;28;20044;-79
2023/05/20 00:41:39;;;;;;;13.27;7.75;;;;;;;;;;5072259;28;20044;-79
2023/05/20 00:44:05;;;;;;;17.38;7.95;;;;;;;;;;5069511;28;20040;-77
2023/05/20 00:46:31;;;;;;;21.67;8.40;;;;;;;;;;5071869;28;20649;-78
2023/05/20 00:48:57;;;;;;;15.63;7.57;;;;;;;;;;5058014;28;20044;-78
2023/05/20 00:51:23;;;;;;;16.23;8.15;;;;;;;;;;5056043;28;20044;-78
2023/05/20 00:53:50;;;;;;;16.23;7.78;;;;;;;;;;5080067;28;20056;-79
2023/05/20 00:56:17;;;;;;;17.90;8.00;;;;;;;;;;5056680;28;20046;-78
2023/05/20 00:58:43;;;;;;;14.77;7.25;;;;;;;;;;5064352;28;20044;-78
2023/05/20 01:01:09;;;;;;;20.17;7.80;;;;;;;;;;5058208;28;20058;-78
2023/05/20 01:03:35;;;;;;;18.52;8.32;;;;;;;;;;5076963;28;20048;-79
2023/05/20 01:06:02;;;;;;;13.88;7.63;;;;;;;;;;5076276;28;20416;-78
2023/05/20 01:08:28;;;;;;;14.57;7.75;;;;;;;;;;5084208;28;20040;-78
2023/05/20 01:10:59;;;;;;;15.48;7.55;;;;;;;;;;5099814;28;20031;-78
2023/05/20 01:13:30;;;;;;;16.05;7.80;;;;;;;;;;5063286;28;20727;-78
2023/05/20 01:15:56;;;;;;;16.55;8.10;;;;;;;;;;5077475;28;20048;-78
2023/05/20 01:18:24;;;;;;;15.07;8.25;;;;;;;;;;5075467;28;20101;-80
2023/05/20 01:20:54;;;;;;;16.48;8.02;;;;;;;;;;5043599;28;20062;-79
2023/05/20 01:23:20;;;;;;;16.63;8.10;;;;;;;;;;5058161;28;20076;-78
2023/05/20 01:25:46;;;;;;;14.80;7.72;;;;;;;;;;5059254;28;20155;-79
2023/05/20 01:28:16;;;;;;;15.52;8.07;;;;;;;;;;5060644;28;20092;-79
2023/05/20 01:30:45;;;;;;;17.30;7.95;;;;;;;;;;5044590;28;20055;-79
2023/05/20 01:33:12;;;;;;;15.80;7.95;;;;;;;;;;5078539;28;20040;-80
2023/05/20 01:35:40;;;;;;;16.50;7.70;;;;;;;;;;5057673;28;20032;-78
2023/05/20 01:38:07;;;;;;;12.98;7.88;;;;;;;;;;5060613;28;20470;-78
2023/05/20 01:40:33;;;;;;;18.98;8.90;;;;;;;;;;5070824;28;20055;-79
2023/05/20 01:43:00;;;;;;;16.92;8.27;;;;;;;;;;5080275;28;20167;-78
2023/05/20 01:45:26;;;;;;;16.15;7.45;;;;;;;;;;5059979;28;20040;-78
2023/05/20 01:47:52;;;;;;;16.55;7.70;;;;;;;;;;5075920;28;20043;-79
2023/05/20 01:50:18;;;;;;;16.30;7.97;;;;;;;;;;5063550;28;20051;-79
2023/05/20 01:52:45;;;;;;;12.32;7.47;;;;;;;;;;5073948;28;20519;-78
2023/05/20 01:55:11;;;;;;;16.80;7.70;;;;;;;;;;5076646;28;20048;-79
2023/05/20 01:57:37;;;;;;;13.00;7.43;;;;;;;;;;5056109;28;20244;-78
2023/05/20 02:00:03;;;;;;;17.20;8.27;;;;;;;;;;5057927;28;20583;-79
2023/05/20 02:02:29;;;;;;;15.77;7.80;;;;;;;;;;5057450;28;20497;-79
2023/05/20 02:04:55;;;;;;;17.65;7.57;;;;;;;;;;5074716;28;20044;-80
2023/05/20 02:07:21;;;;;;;11.88;7.10;;;;;;;;;;5072683;28;20055;-80
2023/05/20 02:09:47;;;;;;;13.13;7.35;;;;;;;;;;5075897;28;20078;-80
2023/05/20 02:12:16;;;;;;;13.40;7.80;;;;;;;;;;5059215;28;20043;-79
2023/05/20 02:14:46;;;;;;;17.15;7.38;;;;;;;;;;5092468;27;20070;-79
2023/05/20 02:17:16;;;;;;;13.15;7.63;;;;;;;;;;5073699;28;20032;-78
2023/05/20 02:19:42;;;;;;;14.80;7.00;;;;;;;;;;5071097;28;20083;-79
2023/05/20 02:22:09;;;;;;;15.90;7.03;;;;;;;;;;5076280;28;20047;-79
2023/05/20 02:24:35;;;;;;;14.20;6.88;;;;;;;;;;5060556;28;20428;-79
2023/05/20 02:27:02;;;;;;;14.63;7.00;;;;;;;;;;5048530;28;20044;-78
2023/05/20 02:29:28;;;;;;;12.35;6.57;;;;;;;;;;5075819;28;20562;-78
2023/05/20 02:31:54;;;;;;;11.43;7.07;;;;;;;;;;5072593;28;20094;-79
2023/05/20 02:34:20;;;;;;;16.08;6.85;;;;;;;;;;5059739;28;20583;-79
2023/05/20 02:36:46;;;;;;;12.90;7.00;;;;;;;;;;5058667;28;20036;-78
2023/05/20 02:39:12;;;;;;;12.20;6.55;;;;;;;;;;5075552;28;20054;-78
2023/05/20 02:41:38;;;;;;;12.90;6.45;;;;;;;;;;5086534;27;20048;-79
2023/05/20 02:44:04;;;;;;;12.68;7.07;;;;;;;;;;5072161;28;20055;-79
2023/05/20 02:46:31;;;;;;;11.23;6.63;;;;;;;;;;5074668;28;20151;-79
2023/05/20 02:48:58;;;;;;;13.77;7.00;;;;;;;;;;5071544;28;20052;-78
2023/05/20 02:51:24;;;;;;;13.30;7.25;;;;;;;;;;5057174;28;20048;-79
2023/05/20 02:53:50;;;;;;;9.60;6.28;;;;;;;;;;5075179;28;20068;-79
2023/05/20 02:56:20;;;;;;;17.45;6.63;;;;;;;;;;5075498;28;20044;-79
2023/05/20 02:58:46;;;;;;;12.95;6.28;;;;;;;;;;5078820;28;20082;-78
2023/05/20 03:01:12;;;;;;;12.70;6.45;;;;;;;;;;5070967;28;20075;-79
2023/05/20 03:03:39;;;;;;;12.75;6.18;;;;;;;;;;5057456;28;20044;-79
2023/05/20 03:06:05;;;;;;;13.02;6.35;;;;;;;;;;5089473;28;20503;-79
2023/05/20 03:08:35;;;;;;;11.95;6.55;;;;;;;;;;5074417;28;20032;-79
2023/05/20 03:11:03;;;;;;;13.05;6.03;;;;;;;;;;5074459;28;20172;-80
2023/05/20 03:13:29;;;;;;;12.20;5.90;;;;;;;;;;5073649;28;20043;-79
2023/05/20 03:15:55;;;;;;;10.45;6.03;;;;;;;;;;5074407;28;20040;-79
2023/05/20 03:18:21;;;;;;;13.27;6.30;;;;;;;;;;5056043;28;20044;-79
2023/05/20 03:20:47;;;;;;;9.43;6.22;;;;;;;;;;5072249;28;20048;-79
2023/05/20 03:23:15;;;;;;;14.02;5.93;;;;;;;;;;5074463;28;20140;-79
2023/05/20 03:25:41;;;;;;;9.93;5.45;;;;;;;;;;5071411;28;20118;-79
2023/05/20 03:28:08;;;;;;;12.27;5.38;;;;;;;;;;5070910;28;20159;-79
2023/05/20 03:30:34;;;;;;;14.02;5.97;;;;;;;;;;5057497;28;20502;-79
2023/05/20 03:33:01;;;;;;;9.40;5.70;;;;;;;;;;5069985;28;20051;-79
2023/05/20 03:35:28;;;;;;;9.25;5.25;;;;;;;;;;5077271;28;20108;-78
2023/05/20 03:37:54;;;;;;;10.20;5.18;;;;;;;;;;5079216;28;20039;-79
2023/05/20 03:40:20;;;;;;;11.90;5.13;;;;;;;;;;5072326;28;20060;-78
2023/05/20 03:42:46;;;;;;;7.88;5.10;;;;;;;;;;5058783;28;20050;-79
2023/05/20 03:45:12;;;;;;;9.38;5.30;;;;;;;;;;5053166;28;20611;-78
2023/05/20 03:47:38;;;;;;;7.60;5.10;;;;;;;;;;5076055;28;20070;-79
2023/05/20 03:50:05;;;;;;;9.55;5.20;;;;;;;;;;5056659;28;20059;-79
2023/05/20 03:52:31;;;;;;;6.63;4.47;;;;;;;;;;5093811;28;20201;-79
2023/05/20 03:54:57;;;;;;;8.75;4.70;;;;;;;;;;5080042;28;20138;-79
2023/05/20 03:57:23;;;;;;;8.48;5.05;;;;;;;;;;5055750;28;20124;-79
2023/05/20 03:59:50;;;;;;;6.93;4.70;;;;;;;;;;5059792;28;20044;-80
2023/05/20 04:02:16;;;;;;;7.72;4.55;;;;;;;;;;5059569;28;20067;-79
2023/05/20 04:04:42;;;;;;;12.68;4.53;;;;;;;;;;5074297;28;20059;-79
2023/05/20 04:07:08;;;;;;;8.05;4.30;;;;;;;;;;5058923;28;20044;-79
2023/05/20 04:09:34;;;;;;;6.90;4.20;;;;;;;;;;5059767;28;20054;-78
2023/05/20 04:12:00;;;;;;;8.82;4.53;;;;;;;;;;5072498;28;20052;-78
2023/05/20 04:14:26;;;;;;;7.32;3.75;;;;;;;;;;5072578;28;20040;-79
2023/05/20 04:16:52;;;;;;;7.35;3.70;;;;;;;;;;5069163;28;20039;-78
2023/05/20 04:19:18;;;;;;;7.03;3.88;;;;;;;;;;5065669;28;20114;-79
2023/05/20 04:21:45;;;;;;;8.45;3.65;;;;;;;;;;5069138;28;20036;-78
2023/05/20 04:24:11;;;;;;;8.23;3.80;;;;;;;;;;5069528;28;20071;-78
2023/05/20 04:26:37;;;;;;;6.05;3.40;;;;;;;;;;5063550;28;20036;-78
2023/05/20 04:29:04;;;;;;;7.40;3.60;;;;;;;;;;5099843;27;20040;-78
2023/05/20 04:31:30;;;;;;;6.55;3.70;;;;;;;;;;5062008;28;20437;-79
2023/05/20 04:33:56;;;;;;;6.40;3.13;;;;;;;;;;5070525;28;20452;-78
2023/05/20 04:36:27;;;;;;;5.68;3.22;;;;;;;;;;5094093;27;20047;-79
2023/05/20 04:38:56;;;;;;;5.50;3.25;;;;;;;;;;5075651;28;20118;-78
2023/05/20 04:41:23;;;;;;;6.82;3.30;;;;;;;;;;5073675;28;20063;-79
2023/05/20 04:43:49;;;;;;;7.30;3.10;;;;;;;;;;5079858;28;20488;-79
2023/05/20 04:46:15;;;;;;;5.47;3.00;;;;;;;;;;5053596;28;20089;-79
2023/05/20 04:48:42;;;;;;;5.50;2.88;;;;;;;;;;5077143;28;20052;-79
2023/05/20 04:51:08;;;;;;;7.47;3.42;;;;;;;;;;5073217;28;20519;-78
2023/05/20 04:53:35;;;;;;;8.35;3.22;;;;;;;;;;5060466;28;20056;-78
2023/05/20 04:56:02;;;;;;;6.40;2.50;;;;;;;;;;5074167;28;20059;-78
2023/05/20 04:58:30;;;;;;;7.10;2.70;;;;;;;;;;5075838;28;20048;-79
2023/05/20 05:00:56;;;;;;;5.47;2.78;;;;;;;;;;5076235;28;20063;-79
2023/05/20 05:03:22;;;;;;;5.30;2.45;;;;;;;;;;5079396;28;20048;-78
2023/05/20 05:05:48;;;;;;;5.30;2.65;;;;;;;;;;5075083;28;20059;-78
2023/05/20 05:08:16;;;;;;;4.60;2.78;;;;;;;;;;5078534;28;20079;-79
2023/05/20 05:10:42;;;;;;;7.57;2.83;;;;;;;;;;5062524;28;20043;-79
2023/05/20 05:13:08;;;;;;;7.43;2.42;;;;;;;;;;5054300;28;20047;-78
2023/05/20 05:15:34;;;;;;;5.68;2.25;;;;;;;;;;5063952;28;20032;-79
2023/05/20 05:18:00;;;;;;;8.10;2.20;;;;;;;;;;5072667;28;20811;-79
2023/05/20 05:20:26;;;;;;;6.47;2.50;;;;;;;;;;5075175;28;20147;-78
2023/05/20 05:22:52;;;;;;;3.63;2.20;;;;;;;;;;5076345;28;20053;-79
2023/05/20 05:25:18;;;;;;;3.92;2.10;;;;;;;;;;5055279;28;20160;-78
2023/05/20 05:27:44;;;;;;;4.13;2.40;;;;;;;;;;5076654;28;20179;-79
2023/05/20 05:30:10;;;;;;;5.22;2.10;;;;;;;;;;5056114;28;20040;-79
2023/05/20 05:32:37;;;;;;;3.50;1.80;;;;;;;;;;5077226;28;20040;-78
2023/05/20 05:35:03;;;;;;;3.45;1.92;;;;;;;;;;5056987;28;20044;-79
2023/05/20 05:37:29;;;;;;;6.55;2.17;;;;;;;;;;5055778;28;20085;-78
2023/05/20 05:39:55;;;;;;;4.97;1.73;;;;;;;;;;5071694;28;20572;-78
2023/05/20 05:42:21;;;;;;;3.10;1.60;;;;;;;;;;5073520;28;20501;-79
2023/05/20 05:44:47;;;;;;;5.15;1.70;;;;;;;;;;5074190;28;21353;-78
2023/05/20 05:47:14;;;;;;;3.95;1.52;;;;;;;;;;5074323;28;20040;-77
2023/05/20 05:49:40;;;;;;;3.65;2.05;;;;;;;;;;5071122;28;20043;-78
2023/05/20 05:52:06;;;;;;;3.78;1.63;;;;;;;;;;5051383;28;20838;-78
2023/05/20 05:54:32;;;;;;;4.13;1.70;;;;;;;;;;5059839;28;20055;-79
2023/05/20 05:56:58;;;;;;;3.47;1.60;;;;;;;;;;5070529;28;20132;-77
2023/05/20 05:59:24;;;;;;;4.28;1.75;;;;;;;;;;5075364;28;20048;-79
2023/05/20 06:01:50;;;;;;;3.83;1.65;;;;;;;;;;5069568;28;20047;-78
2023/05/20 06:04:16;;;;;;;2.95;1.58;;;;;;;;;;5054668;28;20041;-79
2023/05/20 06:06:42;;;;;;;3.45;1.90;;;;;;;;;;5070180;28;20092;-78
2023/05/20 06:09:08;;;;;;;5.47;2.00;;;;;;;;;;5068956;28;20047;-78
2023/05/20 06:11:34;;;;;;;5.25;1.80;;;;;;;;;;5060535;28;20044;-78
2023/05/20 06:14:01;;;;;;;4.43;1.45;;;;;;;;;;5055009;28;20055;-78
2023/05/20 06:16:27;;;;;;;3.55;1.70;;;;;;;;;;5056462;28;20069;-78
2023/05/20 06:18:56;;;;;;;3.88;1.70;;;;;;;;;;5072369;28;20062;-78
2023/05/20 06:21:22;;;;;;;;;;;;;;;;;;5075782;28;20524;-77
2023/05/20 06:23:48;;;;;;;4.63;1.88;;;;;;;;;;5075086;28;20391;-77
2023/05/20 06:26:14;;;;;;;4.05;1.60;;;;;;;;;;5058064;28;20040;-78
2023/05/20 06:28:40;;;;;;;3.90;1.60;;;;;;;;;;5073857;28;20139;-77
2023/05/20 06:31:06;;;;;;;3.60;1.50;;;;;;;;;;5072825;28;20494;-77
2023/05/20 06:33:32;;;;;;;5.82;1.73;;;;;;;;;;5065217;28;20040;-78
2023/05/20 06:36:00;;;;;;;4.30;1.70;;;;;;;;;;5081748;28;20127;-78
2023/05/20 06:38:26;;;;;;;5.25;1.55;;;;;;;;;;5059379;28;20040;-78
2023/05/20 06:40:52;;;;;;;4.20;1.70;;;;;;;;;;5071906;28;20051;-78
2023/05/20 06:43:18;;;;;;;10.05;1.70;;;;;;;;;;5056489;28;20040;-80
2023/05/20 06:45:44;;;;;;;6.07;1.80;;;;;;;;;;5060898;28;20128;-76
2023/05/20 06:48:10;;;;;;;3.53;1.55;;;;;;;;;;5054435;28;20040;-78
2023/05/20 06:50:37;;;;;;;3.33;1.83;;;;;;;;;;5074883;28;20036;-79
2023/05/20 06:53:05;;;;;;;2.45;1.67;;;;;;;;;;5056008;28;20056;-77
2023/05/20 06:55:31;;;;;;;2.85;1.67;;;;;;;;;;5077413;28;20400;-78
2023/05/20 06:57:57;;;;;;;4.05;1.85;;;;;;;;;;5054028;28;20560;-77
2023/05/20 07:00:23;;;;;;;3.95;1.80;;;;;;;;;;5068607;28;20817;-78
2023/05/20 07:02:49;;;;;;;7.65;1.85;;;;;;;;;;5087802;28;20040;-78
2023/05/20 07:05:15;;;;;;;2.75;1.70;;;;;;;;;;5071684;28;20577;-77
2023/05/20 07:07:41;;;;;;;4.85;1.58;;;;;;;;;;5074812;28;20040;-77
2023/05/20 07:10:07;;;;;;;5.10;1.60;;;;;;;;;;5072381;28;20044;-78
2023/05/20 07:12:33;;;;;;;4.53;1.60;;;;;;;;;;5072390;28;20468;-77
2023/05/20 07:15:01;;;;;;;8.88;1.80;;;;;;;;;;5073413;28;20056;-77
2023/05/20 07:17:28;;;;;;;3.85;1.60;;;;;;;;;;5087466;28;20048;-77
2023/05/20 07:19:55;;;;;;;1.88;1.30;;;;;;;;;;5076802;28;20043;-78
2023/05/20 07:22:21;;;;;;;3.95;1.70;;;;;;;;;;5081076;28;20040;-79
2023/05/20 07:24:47;;;;;;;4.85;1.55;;;;;;;;;;5074694;28;20343;-77
2023/05/20 07:27:13;;;;;;;4.97;1.73;;;;;;;;;;5074628;28;20047;-79
2023/05/20 07:29:39;;;;;;;3.25;1.80;;;;;;;;;;5066814;28;20047;-76
2023/05/20 07:32:05;;;;;;;4.50;2.00;;;;;;;;;;5068394;28;20236;-77
2023/05/20 07:34:31;;;;;;;3.30;1.85;;;;;;;;;;5071953;28;20060;-77
2023/05/20 07:36:57;;;;;;;2.83;1.65;;;;;;;;;;5054649;28;20233;-76
2023/05/20 07:39:24;;;;;;;3.35;1.67;;;;;;;;;;5083171;27;20075;-76
2023/05/20 07:41:50;;;;;;;4.90;2.15;;;;;;;;;;5071711;28;20040;-77
2023/05/20 07:44:17;;;;;;;5.72;2.05;;;;;;;;;;5069117;28;20059;-77
2023/05/20 07:46:43;;;;;;;4.07;1.80;;;;;;;;;;5078909;28;20059;-76
2023/05/20 07:49:09;;;;;;;5.35;1.83;;;;;;;;;;5055403;28;20926;-77
2023/05/20 07:51:36;;;;;;;6.00;2.15;;;;;;;;;;5056878;28;20123;-77
2023/05/20 07:54:02;;;;;;;5.97;1.90;;;;;;;;;;5065809;28;20141;-76
2023/05/20 07:56:29;;;;;;;3.55;1.70;;;;;;;;;;5069794;28;20454;-78
2023/05/20 07:59:00;;;;;;;3.90;2.22;;;;;;;;;;5076389;28;20051;-77
2023/05/20 08:01:26;;;;;;;10.55;2.13;;;;;;;;;;5087654;27;20044;-77
2023/05/20 08:03:53;;;;;;;6.32;1.75;;;;;;;;;;5062779;28;20051;-77
2023/05/20 08:06:25;;;;;;;3.90;1.88;;;;;;;;;;5060161;28;20189;-77
2023/05/20 08:08:53;;;;;;;5.00;2.20;;;;;;;;;;5061910;28;20097;-77
2023/05/20 08:11:20;;;;;;;3.35;2.03;;;;;;;;;;5056619;28;20071;-78
2023/05/20 08:13:46;;;;;;;13.63;2.42;;;;;;;;;;5057105;28;20059;-77
2023/05/20 08:16:13;;;;;;;4.38;2.33;;;;;;;;;;5071118;28;20097;-77
2023/05/20 08:18:39;;;;;;;5.47;2.15;;;;;;;;;;5065880;28;20054;-77
2023/05/20 08:21:06;;;;;;;3.08;1.83;;;;;;;;;;5054279;28;20048;-78
2023/05/20 08:23:33;;;;;;;5.55;2.10;;;;;;;;;;5062408;28;20155;-77
2023/05/20 08:26:01;;;;;;;5.40;2.15;;;;;;;;;;5092319;27;20143;-77
2023/05/20 08:28:27;;;;;;;3.72;2.10;;;;;;;;;;5111528;27;20044;-78
2023/05/20 08:30:53;;;;;;;7.53;2.22;;;;;;;;;;5072298;28;20048;-78
2023/05/20 08:33:21;;;;;;;5.47;2.30;;;;;;;;;;5091401;27;20040;-77
2023/05/20 08:35:48;;;;;;;4.00;2.63;;;;;;;;;;5077694;28;20051;-77
2023/05/20 08:38:14;;;;;;;3.75;2.13;;;;;;;;;;5060731;28;20391;-77
2023/05/20 08:40:42;;;;;;;7.53;2.33;;;;;;;;;;5068814;28;20044;-76
2023/05/20 08:43:08;;;;;;;9.57;3.13;;;;;;;;;;5072723;28;20044;-77
2023/05/20 08:45:36;;;;;;;4.30;1.85;;;;;;;;;;5073994;28;20118;-76
2023/05/20 08:48:03;;;;;;;;;;;;;;;;;;5081430;28;20048;-76
2023/05/20 08:50:30;;;;;;;5.45;2.63;;;;;;;;;;5078423;28;20330;-77
2023/05/20 08:52:56;;;;;;;5.70;2.47;;;;;;;;;;5075961;28;20059;-77
2023/05/20 08:55:26;;;;;;;5.07;2.30;;;;;;;;;;5061576;28;20059;-76
2023/05/20 08:57:53;;;;;;;6.20;2.33;;;;;;;;;;5073037;28;20036;-79
2023/05/20 09:00:22;;;;;;;6.47;2.38;;;;;;;;;;5082899;28;20039;-76
2023/05/20 09:02:48;;;;;;;;;;;;;;;;;;5077763;28;20050;-76
2023/05/20 09:05:15;;;;;;;5.63;2.20;;;;;;;;;;5088665;28;19924;-78
2023/05/20 09:07:42;;;;;;;6.53;2.20;;;;;;;;;;5078718;28;20047;-78
2023/05/20 09:10:09;;;;;;;7.28;2.40;;;;;;;;;;5093144;27;20051;-78
2023/05/20 09:12:35;;;;;;;8.75;2.67;;;;;;;;;;5065010;28;20123;-77
2023/05/20 09:15:01;;;;;;;4.55;2.45;;;;;;;;;;5064423;28;20048;-79
2023/05/20 09:17:27;;;;;;;5.20;2.58;;;;;;;;;;5099773;28;20044;-80
2023/05/20 09:19:53;;;;;;;5.40;2.30;;;;;;;;;;5077894;28;20075;-83
2023/05/20 09:22:23;;;;;;;5.47;2.45;;;;;;;;;;5083313;28;20484;-80
2023/05/20 09:24:50;;;;;;;7.97;2.60;;;;;;;;;;5079287;28;20113;-80
2023/05/20 09:27:16;;;;;;;4.40;2.30;;;;;;;;;;5083264;28;20039;-79
2023/05/20 09:29:42;;;;;;;6.90;2.40;;;;;;;;;;5083940;28;20134;-80
2023/05/20 09:32:09;;;;;;;4.95;2.20;;;;;;;;;;5083555;28;20781;-79
2023/05/20 09:34:37;;;;;;;5.10;2.28;;;;;;;;;;5083721;28;20085;-80
2023/05/20 09:37:04;;;;;;;5.30;2.50;;;;;;;;;;5065217;28;20097;-80
2023/05/20 09:39:32;;;;;;;4.63;2.10;;;;;;;;;;5084787;28;20036;-80
2023/05/20 09:42:02;;;;;;;4.13;2.50;;;;;;;;;;5081674;28;20055;-81
2023/05/20 09:44:28;;;;;;;6.18;2.30;;;;;;;;;;5083917;28;20040;-79
2023/05/20 09:46:56;;;;;;;9.25;2.63;;;;;;;;;;5077236;28;20048;-80
2023/05/20 09:49:22;;;;;;;8.35;2.65;;;;;;;;;;5097711;28;20649;-81
2023/05/20 09:51:49;;;;;;;4.75;2.38;;;;;;;;;;5063835;28;20059;-80
2023/05/20 09:54:17;;;;;;;5.50;2.40;;;;;;;;;;5081661;28;20052;-80
2023/05/20 09:56:45;;;;;;;6.57;2.30;;;;;;;;;;5081417;28;20036;-81
2023/05/20 09:59:13;;;;;;;6.38;2.20;;;;;;;;;;5078472;28;20044;-81
2023/05/20 10:01:39;;;;;;;5.80;2.15;;;;;;;;;;5080808;28;20036;-80
2023/05/20 10:04:06;;;;;;;5.43;2.20;;;;;;;;;;5078868;28;20052;-81
2023/05/20 10:06:43;;;;;;;4.88;2.28;;;;;;;;;;5083727;28;20044;-78
2023/05/20 10:09:13;;;;;;;5.43;2.30;;;;;;;;;;5065011;28;20043;-80
2023/05/20 10:11:39;;;;;;;4.35;2.33;;;;;;;;;;5082696;28;20044;-80
2023/05/20 10:14:24;;;;;;;5.22;2.28;;;;;;;;;;5081896;28;20052;-80
2023/05/20 10:16:57;;;;;;;3.80;1.90;;;;;;;;;;5078238;28;20044;-80
2023/05/20 10:19:31;;;;;;;3.72;2.10;;;;;;;;;;5083409;28;20078;-79
2023/05/20 10:22:00;;;;;;;6.78;2.78;;;;;;;;;;5084286;28;20032;-80
2023/05/20 10:24:31;;;;;;;4.43;2.38;;;;;;;;;;5080513;28;20080;-79
2023/05/20 10:26:58;;;;;;;5.65;2.08;;;;;;;;;;5079061;28;20054;-80
2023/05/20 10:29:25;;;;;;;5.60;2.30;;;;;;;;;;5061888;28;20361;-80
2023/05/20 10:31:51;;;;;;;5.63;2.15;;;;;;;;;;5076915;28;20051;-79
2023/05/20 10:34:18;;;;;;;8.02;2.00;;;;;;;;;;5078495;28;20491;-80
2023/05/20 10:36:53;;;;;;;5.43;2.00;;;;;;;;;;5063194;28;20063;-80
2023/05/20 10:39:25;;;;;;;5.13;1.90;;;;;;;;;;5077273;28;20818;-81
2023/05/20 10:41:51;;;;;;;6.38;2.13;;;;;;;;;;5077700;28;20398;-81
2023/05/20 10:44:17;;;;;;;7.25;1.98;;;;;;;;;;5081882;28;20123;-81
2023/05/20 10:46:43;;;;;;;4.28;1.98;;;;;;;;;;5096967;28;20050;-82
2023/05/20 10:49:19;;;;;;;5.60;2.30;;;;;;;;;;5082128;28;20485;-80
2023/05/20 10:51:46;;;;;;;11.52;2.15;;;;;;;;;;5093552;28;20079;-80
2023/05/20 10:54:13;;;;;;;5.85;2.08;;;;;;;;;;5081971;28;20495;-80
2023/05/20 10:56:40;;;;;;;4.32;1.80;;;;;;;;;;5082092;28;20044;-80
2023/05/20 10:59:06;;;;;;;5.25;2.17;;;;;;;;;;5081537;28;20059;-79
2023/05/20 11:01:33;;;;;;;5.47;2.30;;;;;;;;;;5081011;28;20054;-81
2023/05/20 11:04:02;;;;;;;3.75;2.20;;;;;;;;;;5063211;28;20047;-81
2023/05/20 11:06:28;;;;;;;4.78;2.08;;;;;;;;;;5078575;28;20418;-79
2023/05/20 11:08:55;;;;;;;4.07;1.65;;;;;;;;;;5076737;28;20044;-78
2023/05/20 11:11:22;;;;;;;6.70;2.00;;;;;;;;;;5062490;28;20152;-79
2023/05/20 11:13:52;;;;;;;6.50;2.10;;;;;;;;;;5076800;28;20054;-78
2023/05/20 11:16:18;;;;;;;4.38;1.83;;;;;;;;;;5079664;28;20646;-79
2023/05/20 11:18:44;;;;;;;5.93;1.98;;;;;;;;;;5079288;28;20101;-79
2023/05/20 11:21:10;;;;;;;4.32;2.00;;;;;;;;;;5083295;28;20096;-79
2023/05/20 11:23:36;;;;;;;4.28;2.00;;;;;;;;;;5061654;28;20040;-78
2023/05/20 11:26:02;;;;;;;4.32;2.05;;;;;;;;;;5060022;28;20504;-79
2023/05/20 11:28:31;;;;;;;7.07;2.10;;;;;;;;;;5078524;28;20044;-79
2023/05/20 11:30:59;;;;;;;4.93;2.00;;;;;;;;;;5076811;28;20055;-80
2023/05/20 11:33:29;;;;;;;11.60;1.75;;;;;;;;;;5081918;28;20631;-78
2023/05/20 11:35:56;;;;;;;6.15;2.10;;;;;;;;;;5093779;28;20111;-79
2023/05/20 11:38:23;;;;;;;7.18;1.98;;;;;;;;;;5083166;28;20039;-78
2023/05/20 11:40:52;;;;;;;5.13;1.90;;;;;;;;;;5076188;28;20499;-79
2023/05/20 11:43:20;;;;;;;3.08;1.83;;;;;;;;;;5080524;28;20040;-78
2023/05/20 11:45:59;;;;;;;6.05;2.00;;;;;;;;;;5081046;28;20051;-79
2023/05/20 11:48:25;;;;;;;3.72;2.13;;;;;;;;;;5103197;27;20496;-79
2023/05/20 11:50:53;;;;;;;5.65;2.10;;;;;;;;;;5079008;28;21089;-81
2023/05/20 11:53:20;;;;;;;6.28;1.90;;;;;;;;;;5079089;28;20060;-79
2023/05/20 11:55:46;;;;;;;7.85;1.98;;;;;;;;;;5096591;28;20040;-79
2023/05/20 11:58:15;;;;;;;2.58;1.70;;;;;;;;;;5096121;28;20044;-81
2023/05/20 12:00:40;;;;;;;9.10;2.10;;;;;;;;;;5079150;28;20048;-79
2023/05/20 12:03:08;;;;;;;3.47;2.15;;;;;;;;;;5062915;28;20048;-80
2023/05/20 12:05:34;;;;;;;4.95;1.83;;;;;;;;;;5065721;28;20075;-80
2023/05/20 12:08:00;;;;;;;8.30;1.92;;;;;;;;;;5063024;28;20445;-80
2023/05/20 12:10:26;;;;;;;8.93;1.98;;;;;;;;;;5079787;28;20036;-80
2023/05/20 12:12:52;;;;;;;4.90;1.90;;;;;;;;;;5077652;28;20048;-80
2023/05/20 12:15:18;;;;;;;2.47;1.65;;;;;;;;;;5078641;28;20494;-81
2023/05/20 12:17:48;;;;;;;3.65;1.80;;;;;;;;;;5062926;28;20056;-80
2023/05/20 12:20:15;;;;;;;4.40;1.98;;;;;;;;;;5077730;28;20123;-80
2023/05/20 12:22:44;;;;;;;4.63;1.90;;;;;;;;;;5077310;28;20043;-81
2023/05/20 12:25:11;;;;;;;8.77;1.98;;;;;;;;;;5059120;28;20086;-78
2023/05/20 12:27:37;;;;;;;3.42;1.80;;;;;;;;;;5107346;27;20051;-80
2023/05/20 12:30:04;;;;;;;6.07;1.83;;;;;;;;;;5079556;28;20044;-80
2023/05/20 12:32:30;;;;;;;5.15;1.90;;;;;;;;;;5078601;28;20040;-79
2023/05/20 12:34:56;;;;;;;10.15;2.10;;;;;;;;;;5077103;28;20043;-81
2023/05/20 12:37:22;;;;;;;4.38;1.90;;;;;;;;;;5082129;28;20644;-79
2023/05/20 12:39:48;;;;;;;2.40;1.75;;;;;;;;;;5079540;28;20123;-77
2023/05/20 12:42:14;;;;;;;3.80;1.60;;;;;;;;;;5077435;28;20138;-81
2023/05/20 12:44:40;;;;;;;5.20;1.75;;;;;;;;;;5083342;28;20044;-81
2023/05/20 12:47:06;;;;;;;8.63;2.10;;;;;;;;;;5070520;28;20125;-82
2023/05/20 12:49:32;;;;;;;4.38;1.58;;;;;;;;;;5085509;28;20048;-82
2023/05/20 12:51:58;;;;;;;6.32;1.77;;;;;;;;;;5066325;28;20047;-81
2023/05/20 12:54:27;;;;;;;3.03;1.80;;;;;;;;;;5084147;28;20086;-80
2023/05/20 12:56:53;;;;;;;11.23;2.50;;;;;;;;;;5084447;28;20048;-80
2023/05/20 12:59:19;;;;;;;4.70;1.70;;;;;;;;;;5067108;28;20089;-80
2023/05/20 13:01:45;;;;;;;6.90;1.80;;;;;;;;;;5083266;28;20709;-81
2023/05/20 13:04:11;;;;;;;3.13;1.60;;;;;;;;;;5083244;28;20044;-81
2023/05/20 13:06:37;;;;;;;4.45;1.80;;;;;;;;;;5083333;28;20028;-80
2023/05/20 13:09:03;;;;;;;9.10;2.38;;;;;;;;;;5080249;28;20048;-79
2023/05/20 13:11:32;;;;;;;7.65;2.30;;;;;;;;;;5082592;28;20048;-79
2023/05/20 13:13:58;;;;;;;4.20;2.08;;;;;;;;;;5079562;28;20048;-78
2023/05/20 13:16:24;;;;;;;4.45;1.85;;;;;;;;;;5083057;28;20517;-80
2023/05/20 13:18:50;;;;;;;5.18;1.95;;;;;;;;;;5078156;28;20062;-79
2023/05/20 13:21:16;;;;;;;5.00;2.00;;;;;;;;;;5063450;28;20764;-78
2023/05/20 13:23:42;;;;;;;5.13;2.10;;;;;;;;;;5081044;28;20045;-79
2023/05/20 13:26:09;;;;;;;3.70;1.98;;;;;;;;;;5082858;28;20055;-82
2023/05/20 13:28:35;;;;;;;5.22;2.10;;;;;;;;;;5067111;28;20442;-80
2023/05/20 13:31:04;;;;;;;8.85;2.55;;;;;;;;;;5082323;28;20093;-80
2023/05/20 13:33:30;;;;;;;3.53;1.75;;;;;;;;;;5064525;28;20031;-79
2023/05/20 13:35:56;;;;;;;4.07;1.70;;;;;;;;;;5080930;28;20156;-80
2023/05/20 13:38:22;;;;;;;3.63;2.17;;;;;;;;;;5084977;28;20071;-79
2023/05/20 13:40:48;;;;;;;4.75;2.30;;;;;;;;;;5082129;28;20539;-81
2023/05/20 13:43:14;;;;;;;4.30;2.15;;;;;;;;;;5083367;28;20048;-80
2023/05/20 13:45:40;;;;;;;4.03;2.10;;;;;;;;;;5064208;28;20048;-80
2023/05/20 13:48:06;;;;;;;5.22;2.08;;;;;;;;;;5060990;28;20044;-80
2023/05/20 13:50:32;;;;;;;4.50;1.80;;;;;;;;;;5082722;28;20732;-80
2023/05/20 13:52:58;;;;;;;3.38;1.63;;;;;;;;;;5065189;28;20052;-81
2023/05/20 13:55:24;;;;;;;3.72;1.90;;;;;;;;;;5082712;28;20069;-81
2023/05/20 13:57:53;;;;;;;3.97;1.85;;;;;;;;;;5081207;28;20044;-79
2023/05/20 14:00:19;;;;;;;4.70;1.77;;;;;;;;;;5080857;28;20141;-79
2023/05/20 14:02:45;;;;;;;4.13;2.00;;;;;;;;;;5082336;28;20077;-78
2023/05/20 14:05:12;;;;;;;7.82;1.85;;;;;;;;;;5080844;28;20107;-79
2023/05/20 14:07:38;;;;;;;5.03;1.95;;;;;;;;;;5082447;28;20044;-79
2023/05/20 14:10:05;;;;;;;3.38;1.70;;;;;;;;;;5080215;28;21188;-81
2023/05/20 14:12:32;;;;;;;5.15;2.10;;;;;;;;;;5061407;28;20079;-80
2023/05/20 14:15:01;;;;;;;4.60;1.90;;;;;;;;;;5082468;28;20039;-79
2023/05/20 14:17:27;;;;;;;11.48;1.80;;;;;;;;;;5064500;28;20040;-78
2023/05/20 14:19:53;;;;;;;8.48;2.53;;;;;;;;;;5082509;28;20135;-80
2023/05/20 14:22:19;;;;;;;11.25;1.67;;;;;;;;;;5081662;28;20101;-81
2023/05/20 14:24:45;;;;;;;5.32;2.00;;;;;;;;;;5081919;28;20059;-79
2023/05/20 14:27:12;;;;;;;6.10;1.90;;;;;;;;;;5083767;28;20051;-80
2023/05/20 14:29:40;;;;;;;4.03;1.80;;;;;;;;;;5064089;28;20047;-79
2023/05/20 14:32:07;;;;;;;3.72;1.77;;;;;;;;;;5069790;28;20067;-80
2023/05/20 14:34:33;;;;;;;4.25;2.10;;;;;;;;;;5114796;28;20032;-81
2023/05/20 14:37:06;;;;;;;13.43;3.38;;;;;;;;;;5081472;28;20055;-81